GW3823 Weather Reports


Display with metric or nautical units.
time (UTC)temp
F
wind
direction
speed
MPH
gust
MPH
rain 1hr
in
rain 24hr
in
rain mn
in
humidity
%
barometer
mb
20240621034303 52 208 1.0 2.0 0.00 0.08 0.08 90 1017.7
20240621033803 53 198 1.0 2.0 0.00 0.08 0.08 88 1023.6
20240621033303 52 127 0.0 3.0 0.00 0.08 0.08 89 1017.8
20240621032803 52 57 1.0 6.0 0.00 0.08 0.08 89 1017.8
20240621032306 52 73 4.0 7.0 0.00 0.08 0.08 89 1017.6
20240621031804 52 65 6.0 7.0 0.00 0.08 0.08 89 1017.6
20240621031303 52 59 2.0 5.0 0.00 0.08 0.08 89 1017.6
20240621030803 52 54 3.0 6.0 0.00 0.08 0.08 89 1017.8
20240621030304 52 39 3.0 6.0 0.00 0.08 0.08 89 1017.6
20240621025803 53 19 5.0 6.0 0.02 0.08 0.08 90 1017.6
20240621025305 52 287 2.0 9.0 0.03 0.08 0.08 89 1017.6
20240621024804 52 64 5.0 9.0 0.04 0.08 0.08 88 1028.0
20240621024303 52 66 5.0 9.0 0.04 0.08 0.08 86 1017.9
20240621023804 53 55 3.0 5.0 0.04 0.08 0.08 88 1017.8
20240621023303 52 9 2.0 6.0 0.04 0.08 0.08 88 1017.9
20240621022306 53 49 5.0 7.0 0.04 0.08 0.08 90 1018.0
20240621021304 52 59 5.0 6.0 0.05 0.08 0.08 89 1018.3
20240621020804 52 82 3.0 5.0 0.05 0.08 0.08 88 1018.2
20240621020303 53 81 2.0 5.0 0.04 0.07 0.07 88 1018.2
20240621015804 53 77 3.0 5.0 0.04 0.06 0.06 86 1027.8
20240621015306 53 242 1.0 5.0 0.03 0.05 0.05 85 1018.2
20240621013804 53 223 5.0 9.0 0.03 0.04 0.04 82 1018.0
20240621013303 53 190 4.0 7.0 0.03 0.04 0.04 81 1017.9
20240621011804 53 215 5.0 13.0 0.02 0.04 0.04 82 1017.4
20240621010803 54 279 5.0 16.0 0.02 0.03 0.03 79 1017.3
20240621010304 55 197 3.0 20.0 0.02 0.03 0.03 80 1017.1
20240621005803 57 190 16.0 22.0 0.01 0.02 0.02 72 1016.9
20240621004804 62 170 4.0 9.0 0.00 0.01 0.01 74 1015.9
20240621004304 62 150 2.0 5.0 0.00 0.01 0.01 73 1015.2
20240621003804 63 220 1.0 3.0 0.00 0.01 0.01 70 1015.0
20240621002804 63 64 3.0 6.0 0.01 0.01 0.01 68 1014.8
20240621001304 62 43 4.0 8.0 0.01 0.01 0.01 74 1014.2
20240621000804 62 5 2.0 8.0 0.01 0.01 0.01 73 1014.3
20240621000304 60 52 5.0 9.0 0.01 0.01 0.01 76 1014.3
20240620235804 63 72 1.0 6.0 0.01 0.01 0.01 76 1015.8
20240620235305 61 24 3.0 6.0 0.01 0.01 0.01 72 1014.7
20240620234804 63 31 2.0 3.0 0.01 0.01 0.01 73 1015.8
20240620233804 66 119 1.0 5.0 0.01 0.01 0.01 62 1015.6
20240620233304 68 191 3.0 9.0 0.00 0.00 0.00 46 1016.3
20240620232804 67 206 2.0 6.0 0.00 0.00 0.00 44 1015.1
20240620232306 68 298 3.0 6.0 0.00 0.00 0.00 43 1015.9
20240620231803 68 182 2.0 5.0 0.00 0.00 0.00 45 1014.9
20240620231303 69 224 3.0 8.0 0.00 0.00 0.00 44 1015.9
20240620230803 68 184 2.0 8.0 0.00 0.00 0.00 43 1015.0
20240620230304 69 225 3.0 9.0 0.00 0.00 0.00 42 1015.9
20240620225803 68 221 5.0 9.0 0.00 0.00 0.00 41 1014.9
20240620224803 68 231 6.0 10.0 0.00 0.00 0.00 42 1014.6
20240620224304 70 220 3.0 8.0 0.00 0.00 0.00 40 1015.7
20240620223804 68 13 4.0 6.0 0.00 0.00 0.00 40 1014.7
20240620223304 69 351 2.0 9.0 0.00 0.00 0.00 39 1015.5
20240620222804 68 227 6.0 9.0 0.00 0.00 0.00 41 1014.6
20240620222306 69 350 3.0 13.0 0.00 0.00 0.00 39 1015.7
20240620221804 68 40 7.0 16.0 0.00 0.00 0.00 40 1014.7
20240620220803 69 216 5.0 13.0 0.00 0.00 0.00 39 1015.0
20240620220304 70 267 5.0 13.0 0.00 0.00 0.00 38 1015.9
20240620215804 67 212 7.0 12.0 0.00 0.00 0.00 41 1016.8
20240620215306 67 18 5.0 16.0 0.00 0.00 0.00 42 1015.7
20240620214804 67 17 5.0 16.0 0.00 0.00 0.00 43 1016.8
20240620214303 66 26 6.0 16.0 0.00 0.00 0.00 44 1015.6
20240620213803 67 233 5.0 12.0 0.00 0.00 0.00 46 1016.7
20240620211804 63 36 9.0 14.0 0.00 0.00 0.00 56 1016.6
20240620211304 62 24 7.0 10.0 0.00 0.00 0.00 58 1017.2
20240620210803 60 198 5.0 15.0 0.00 0.00 0.00 61 1016.5
20240620210303 59 209 6.0 26.0 0.00 0.00 0.00 64 1016.6
20240620205804 61 182 14.0 23.0 0.00 0.00 0.00 56 1017.6
20240620205306 63 167 7.0 23.0 0.00 0.00 0.00 47 1017.3
20240620204804 63 173 10.0 23.0 0.00 0.00 0.00 45 1017.9
20240620204303 63 195 7.0 21.0 0.00 0.00 0.00 47 1016.8
20240620203804 70 212 10.0 21.0 0.00 0.00 0.00 44 1017.2
20240620203304 65 194 8.0 25.0 0.00 0.00 0.00 42 1017.8
20240620202803 70 202 13.0 25.0 0.00 0.00 0.00 37 1016.7
20240620202306 73 209 3.0 10.0 0.00 0.00 0.00 32 1017.0
20240620201803 72 186 3.0 7.0 0.00 0.00 0.00 31 1015.9
20240620201303 73 202 5.0 13.0 0.00 0.00 0.00 31 1016.7
20240620200302 75 257 3.0 7.0 0.00 0.00 0.00 33 1018.1
20240620195802 73 180 1.0 5.0 0.00 0.00 0.00 33 1015.2
20240620195306 71 195 5.0 8.0 0.00 0.00 0.00 38 1016.0
20240620194803 73 196 5.0 8.0 0.00 0.00 0.00 28 1017.1
20240620194303 71 196 5.0 8.0 0.00 0.00 0.00 38 1016.0
20240620193802 73 176 5.0 10.0 0.00 0.00 0.00 27 1016.9
20240620193303 75 221 6.0 15.0 0.00 0.00 0.00 31 1018.1
20240620192802 76 13 8.0 15.0 0.00 0.00 0.00 31 1016.9
20240620192306 75 13 8.0 15.0 0.00 0.00 0.00 32 1015.6
20240620191803 76 13 8.0 15.0 0.00 0.00 0.00 32 1016.3
20240620191302 75 13 8.0 15.0 0.00 0.00 0.00 33 1014.9
20240620190803 76 13 8.0 15.0 0.00 0.00 0.00 32 1015.9
20240620185802 82 206 6.0 15.0 0.00 0.00 0.00 32 1015.7
20240620185306 82 182 6.0 13.0 0.00 0.00 0.00 31 1016.4
20240620184802 82 165 4.0 13.0 0.00 0.00 0.00 32 1015.5
20240620184303 82 247 6.0 6.0 0.00 0.00 0.00 32 1016.1
20240620183802 82 247 6.0 6.0 0.00 0.00 0.00 33 1015.1
20240620183303 82 222 7.0 9.0 0.00 0.00 0.00 35 1016.0
20240620182803 80 199 8.0 9.0 0.00 0.00 0.00 36 1014.9
20240620182305 80 199 8.0 9.0 0.00 0.00 0.00 35 1016.0
20240620181802 80 199 8.0 9.0 0.00 0.00 0.00 34 1016.9
20240620181303 80 199 8.0 9.0 0.00 0.00 0.00 35 1015.6
20240620180803 80 193 6.0 10.0 0.00 0.00 0.00 34 1016.7
20240620180302 80 213 8.0 10.0 0.00 0.00 0.00 33 1015.4
20240620175803 76 178 2.0 10.0 0.00 0.00 0.00 34 1015.0
20240620175305 76 175 2.0 6.0 0.00 0.00 0.00 35 1015.4
20240620174303 74 175 2.0 6.0 0.00 0.00 0.00 35 1015.1
20240620173803 76 175 2.0 6.0 0.00 0.00 0.00 35 1015.0
20240620173302 74 175 2.0 8.0 0.00 0.00 0.00 35 1015.0
20240620172803 76 175 2.0 12.0 0.00 0.00 0.00 35 1015.0
20240620172305 76 180 8.0 12.0 0.00 0.00 0.00 36 1015.2
20240620171803 76 201 4.0 8.0 0.00 0.00 0.00 35 1015.3
20240620170802 76 292 4.0 15.0 0.00 0.00 0.00 36 1015.2
20240620170303 76 16 5.0 10.0 0.00 0.00 0.00 35 1015.2
20240620165802 73 354 2.0 10.0 0.00 0.00 0.00 36 1015.4
20240620165305 72 12 2.0 10.0 0.00 0.00 0.00 38 1015.3
20240620164303 72 17 7.0 10.0 0.00 0.00 0.00 38 1015.3
20240620163803 73 352 3.0 5.0 0.00 0.00 0.00 37 1015.4
20240620163302 71 301 2.0 12.0 0.00 0.00 0.00 38 1015.4
20240620162803 70 38 3.0 10.0 0.00 0.00 0.00 39 1020.0
20240620162305 70 24 3.0 3.0 0.00 0.00 0.00 40 1015.6
20240620161847 70 24 3.0 3.0 0.00 0.00 0.00 41 1015.5
20240620161302 70 24 3.0 3.0 0.00 0.00 0.00 40 1015.7
20240620160803 70 24 3.0 3.0 0.00 0.00 0.00 41 1015.4
20240620160302 70 24 3.0 9.0 0.00 0.00 0.00 40 1015.5
20240620155803 68 220 8.0 9.0 0.00 0.00 0.00 43 1015.5
20240620154803 68 164 7.0 8.0 0.00 0.00 0.00 42 1015.6
20240620154302 69 277 2.0 5.0 0.00 0.00 0.00 43 1015.5
20240620153803 68 359 3.0 5.0 0.00 0.00 0.00 44 1015.7
20240620152802 68 307 1.0 7.0 0.00 0.00 0.00 46 1015.7
20240620152306 67 38 7.0 7.0 0.00 0.00 0.00 46 1023.8
20240620151802 66 16 1.0 2.0 0.00 0.00 0.00 47 1015.8
20240620151303 66 52 0.0 5.0 0.00 0.00 0.00 48 1019.5
20240620150803 65 18 5.0 6.0 0.00 0.00 0.00 48 1015.8
20240620150303 65 4 5.0 6.0 0.00 0.00 0.00 48 1015.8
20240620145305 64 38 2.0 3.0 0.00 0.00 0.00 50 1015.9
20240620144803 63 265 2.0 6.0 0.00 0.00 0.00 52 1023.2
20240620144303 63 341 3.0 6.0 0.00 0.00 0.00 51 1015.7
20240620143804 62 15 4.0 6.0 0.00 0.00 0.00 52 1023.5
20240620143303 59 321 2.0 2.0 0.00 0.00 0.00 58 1015.9
20240620142803 59 321 2.0 2.0 0.00 0.00 0.00 58 1024.9
20240620142306 59 321 2.0 2.0 0.00 0.00 0.00 59 1015.9
20240620141803 59 321 2.0 2.0 0.00 0.00 0.00 58 1023.8
20240620141302 59 40 1.0 3.0 0.00 0.00 0.00 62 1015.7
20240620140802 58 266 2.0 6.0 0.00 0.00 0.00 62 1025.1
20240620140302 58 222 2.0 6.0 0.00 0.00 0.00 61 1016.0
20240620135802 56 25 1.0 2.0 0.00 0.00 0.00 64 1019.7
20240620135306 56 160 1.0 5.0 0.00 0.00 0.00 67 1016.1
20240620134802 55 198 3.0 5.0 0.00 0.00 0.00 66 1016.2
20240620134303 55 209 2.0 5.0 0.00 0.00 0.00 67 1015.9
20240620133803 55 155 1.0 3.0 0.00 0.00 0.00 65 1015.8
20240620133302 55 275 1.0 5.0 0.00 0.00 0.00 68 1015.9
20240620132802 55 291 1.0 5.0 0.00 0.00 0.00 64 1015.8
20240620132306 55 26 1.0 3.0 0.00 0.00 0.00 65 1015.9
20240620131802 55 116 1.0 6.0 0.00 0.00 0.00 67 1015.8
20240620131302 54 347 3.0 7.0 0.00 0.00 0.00 65 1023.8
20240620130803 54 47 4.0 8.0 0.00 0.00 0.00 66 1015.7
20240620130303 53 63 6.0 8.0 0.00 0.00 0.00 68 1021.2
20240620125803 52 57 1.0 7.0 0.00 0.00 0.00 71 1015.6
20240620125306 51 63 2.0 6.0 0.00 0.00 0.00 71 1015.5
20240620124803 51 4 3.0 5.0 0.00 0.00 0.00 72 1015.5
20240620124303 50 56 3.0 5.0 0.00 0.00 0.00 73 1015.6
20240620123802 50 62 2.0 5.0 0.00 0.00 0.00 75 1019.8
20240620123303 50 94 2.0 5.0 0.00 0.00 0.00 74 1015.5
20240620122306 49 54 3.0 6.0 0.00 0.00 0.00 74 1015.3
20240620121803 49 57 3.0 6.0 0.00 0.00 0.00 76 1019.4
20240620121303 50 60 3.0 6.0 0.00 0.00 0.00 74 1015.3
20240620120803 50 318 0.0 6.0 0.00 0.00 0.00 74 1015.3
20240620120302 51 70 3.0 5.0 0.00 0.00 0.00 72 1015.2
20240620115803 50 22 2.0 8.0 0.00 0.00 0.00 74 1015.0
20240620115306 52 150 3.0 8.0 0.00 0.00 0.00 69 1016.4
20240620114802 52 73 5.0 9.0 0.00 0.00 0.00 69 1014.8
20240620114302 52 54 3.0 6.0 0.00 0.00 0.00 69 1014.9
20240620113803 51 44 2.0 5.0 0.00 0.00 0.00 71 1015.0
20240620113303 52 130 0.0 5.0 0.00 0.00 0.00 70 1015.0
20240620112803 52 45 3.0 7.0 0.00 0.00 0.00 69 1015.0
20240620112305 52 67 4.0 9.0 0.00 0.00 0.00 69 1014.9
20240620111303 52 63 2.0 6.0 0.00 0.00 0.00 70 1015.0
20240620110803 52 66 5.0 6.0 0.00 0.00 0.00 69 1022.6
20240620110302 52 24 3.0 6.0 0.00 0.00 0.00 71 1014.8
20240620105803 52 84 4.0 6.0 0.00 0.00 0.00 71 1016.4
20240620104803 51 55 6.0 8.0 0.00 0.00 0.00 72 1016.2
20240620104303 52 47 4.0 7.0 0.00 0.00 0.00 69 1014.9
20240620103803 52 26 4.0 7.0 0.00 0.00 0.00 68 1014.7
20240620103303 51 41 3.0 6.0 0.00 0.00 0.00 70 1014.7
20240620102803 52 359 1.0 5.0 0.00 0.00 0.00 71 1014.5
20240620102306 52 52 2.0 3.0 0.00 0.00 0.00 61 1014.5
20240620101803 52 30 3.0 6.0 0.00 0.00 0.00 69 1014.5
20240620100802 50 49 4.0 6.0 0.00 0.00 0.00 75 1014.4
20240620100302 51 38 4.0 7.0 0.00 0.00 0.00 74 1014.5
20240620095803 51 78 5.0 7.0 0.00 0.00 0.00 74 1015.1
20240620095306 52 60 3.0 6.0 0.00 0.00 0.00 63 1016.1
20240620094303 52 25 2.0 6.0 0.00 0.00 0.00 73 1015.6
20240620093803 51 70 5.0 7.0 0.00 0.00 0.00 72 1015.0
20240620093302 52 67 4.0 7.0 0.00 0.00 0.00 72 1015.6
20240620092803 52 118 1.0 5.0 0.00 0.00 0.00 64 1014.7
20240620092306 52 34 3.0 6.0 0.00 0.00 0.00 70 1015.4
20240620091804 52 20 5.0 6.0 0.00 0.00 0.00 68 1014.3
20240620091302 53 75 3.0 7.0 0.00 0.00 0.00 68 1015.4
20240620090803 54 69 5.0 8.0 0.00 0.00 0.00 68 1016.1
20240620090303 53 50 3.0 7.0 0.00 0.00 0.00 68 1015.2
20240620085803 55 26 5.0 10.0 0.00 0.00 0.00 68 1016.1
20240620085306 55 14 2.0 10.0 0.00 0.00 0.00 70 1016.2
20240620084303 50 48 5.0 7.0 0.00 0.00 0.00 74 1014.7
20240620083803 52 42 3.0 6.0 0.00 0.00 0.00 74 1015.7
20240620083303 50 49 3.0 8.0 0.00 0.00 0.00 74 1014.5
20240620082305 53 52 4.0 6.0 0.00 0.00 0.00 53 1016.1
20240620081803 50 68 5.0 7.0 0.00 0.00 0.00 74 1015.1
20240620081303 53 59 2.0 7.0 0.00 0.00 0.00 60 1015.9
20240620080803 52 59 6.0 9.0 0.00 0.00 0.00 73 1015.2
20240620080302 50 73 5.0 9.0 0.00 0.00 0.00 74 1015.9
20240620075803 51 62 6.0 9.0 0.00 0.00 0.00 74 1014.6
20240620075306 53 96 1.0 3.0 0.00 0.00 0.00 74 1015.6
20240620074802 51 31 1.0 3.0 0.00 0.00 0.00 63 1014.7
20240620074303 52 308 1.0 2.0 0.00 0.00 0.00 75 1015.6
20240620073803 50 126 1.0 5.0 0.00 0.00 0.00 75 1014.7
20240620073303 51 86 3.0 6.0 0.00 0.00 0.00 74 1015.3
20240620072803 51 82 4.0 6.0 0.00 0.00 0.00 75 1014.4
20240620072306 53 24 1.0 3.0 0.00 0.00 0.00 51 1015.3
20240620071803 51 214 2.0 3.0 0.00 0.00 0.00 75 1014.3
20240620071302 51 61 2.0 5.0 0.00 0.00 0.00 74 1015.2
20240620070803 54 62 3.0 6.0 0.00 0.00 0.00 73 1016.2
20240620070303 53 62 3.0 5.0 0.00 0.00 0.00 72 1015.1
20240620065803 58 41 2.0 3.0 0.00 0.00 0.00 72 1018.0
20240620065305 53 102 1.0 6.0 0.00 0.00 0.00 43 1014.9
20240620064303 54 84 3.0 9.0 0.00 0.00 0.00 70 1014.7
20240620063803 53 35 5.0 7.0 0.00 0.00 0.00 71 1015.9
20240620063303 54 73 5.0 7.0 0.00 0.00 0.00 69 1014.9
20240620062803 54 71 3.0 7.0 0.00 0.00 0.00 42 1015.6
20240620062305 54 28 3.0 5.0 0.00 0.00 0.00 71 1014.8
20240620061803 54 67 3.0 6.0 0.00 0.00 0.00 70 1015.8
20240620061303 55 56 6.0 6.0 0.00 0.00 0.00 68 1014.8
20240620060803 56 253 1.0 5.0 0.00 0.00 0.00 68 1016.0
20240620060303 57 64 2.0 5.0 0.00 0.00 0.00 66 1016.4
20240620055803 66 345 2.0 5.0 0.00 0.00 0.00 67 1015.4
20240620055306 66 175 2.0 5.0 0.00 0.00 0.00 68 1016.4
20240620054803 66 221 2.0 7.0 0.00 0.00 0.00 69 1015.0
20240620054303 66 62 5.0 7.0 0.00 0.00 0.00 52 1016.0
20240620053803 66 59 4.0 6.0 0.00 0.00 0.00 69 1015.2
20240620053303 66 71 4.0 7.0 0.00 0.00 0.00 68 1016.3
20240620052803 66 59 1.0 3.0 0.00 0.00 0.00 67 1015.4
20240620052306 66 36 2.0 5.0 0.00 0.00 0.00 68 1016.3
20240620051803 66 61 5.0 5.0 0.00 0.00 0.00 70 1015.1
20240620050803 55 53 6.0 7.0 0.00 0.00 0.00 70 1015.1
20240620050303 66 72 2.0 5.0 0.00 0.00 0.00 68 1015.8
20240620045803 58 42 2.0 6.0 0.00 0.00 0.00 70 1016.7
20240620045306 56 44 5.0 6.0 0.00 0.00 0.00 70 1015.7
20240620044803 58 214 1.0 2.0 0.00 0.00 0.00 70 1016.5
20240620044303 56 199 1.0 8.0 0.00 0.00 0.00 70 1015.6
20240620043803 57 69 3.0 8.0 0.00 0.00 0.00 52 1016.0
20240620043303 55 81 3.0 6.0 0.00 0.00 0.00 70 1014.9
20240620042803 57 82 5.0 8.0 0.00 0.00 0.00 42 1015.9
20240620041303 56 60 2.0 3.0 0.00 0.00 0.00 68 1014.7
20240620040803 58 28 1.0 7.0 0.00 0.00 0.00 67 1015.6
20240620040303 56 53 5.0 7.0 0.00 0.00 0.00 66 1014.4
20240620035803 58 302 1.0 3.0 0.00 0.00 0.00 66 1015.6
20240620035306 57 216 1.0 5.0 0.00 0.00 0.00 64 1014.4
20240620034803 58 36 3.0 7.0 0.00 0.00 0.00 64 1015.3